Aeroporto :
LOGIN :

Iscrizione | Disclaimer

   EN    FR    IT 

 










Sommario :    VFR   VFR Marginale   IFR   IFR Intensivo   IFR Molto Intensivo
Visibilità : 
Base nubi : 
>= 8 km
>= 3000ft
5 / 8 km
1000 / 3000 ft
1500m / 5 km
500 / 1000 ft
800 / 1500m
200 / 500 ft
< 800m
< 200 ft
Simboli :   Temporali  Nebbia  Neve Forte  Precipitazioni Forti  Vento > 20 kt
SIGMETs :   Varie  Temporali  Ghiacco  Turbolenza  Onda orograficha  Ceneri Vulcaniche






- Altitudine del aeroporto : 913 ft


LFSX - Luxeuil

ULTIMO METAR :
  • 241530Z AUTO 24003KT 210V270 CAVOK 23/12 Q1018

METARs OBSOLETI :
  • 241500Z AUTO 20003KT 120V270 CAVOK 23/12 Q1018
  • 241430Z AUTO VRB02KT CAVOK 22/11 Q1018
  • 241400Z AUTO 20004KT 140V290 CAVOK 22/13 Q1019
  • 241330Z AUTO VRB03KT 9999 FEW031 22/14 Q1019
  • 241300Z AUTO VRB02KT CAVOK 22/14 Q1019

TAF TAF LFSX
Valido dal 24 a 09 ore il 25 a 09 ore UTC


240800Z 2409/2509 25005KT CAVOK
TEMPO 2421/2502 2000 BR
BECMG 2508/2509 14010KT



MetMap, La meteo Aeronautica in un colpo d'occhio ! - Copyright ORBIFLY Dicembre 2007 - Disclaimer

ORBIFLY MET'MAP TEAM :

Programmazione e sviluppo : Alexandra Zaïnal
Concezione : Baudouin d'Aumeries
Aiuto per la programmazione : Marc-Olivier Méhu
Supporto tecnico e logistico : Manuel Goepfert
Aiuto per la traduzione : Arnaldo La Scala

Contatto : metmap@orbifly.com




FONTI E CREDITI :

   NOAA